createdAt,value
2019-01-24T00:04:34.122Z,-3.93
2019-01-24T00:09:52.967Z,-3.98
2019-01-24T00:15:12.059Z,-4.00
2019-01-24T00:20:30.725Z,-3.94
2019-01-24T00:25:49.374Z,-3.91
2019-01-24T00:31:08.083Z,-3.95
2019-01-24T00:36:26.742Z,-3.88
2019-01-24T00:41:45.413Z,-3.93
2019-01-24T00:47:04.296Z,-3.97
2019-01-24T00:52:23.768Z,-3.95
2019-01-24T00:57:42.446Z,-4.05
2019-01-24T01:03:01.934Z,-3.96
2019-01-24T01:08:20.671Z,-3.83
2019-01-24T01:13:39.618Z,-3.87
2019-01-24T01:18:59.970Z,-3.98
2019-01-24T01:24:18.676Z,-4.09
2019-01-24T01:29:37.344Z,-3.96
2019-01-24T01:34:56.015Z,-4.08
2019-01-24T01:40:19.655Z,-4.15
2019-01-24T01:45:38.289Z,-4.18
2019-01-24T01:50:56.860Z,-4.12
2019-01-24T01:56:15.620Z,-3.99
2019-01-24T02:01:35.429Z,-4.16
2019-01-24T02:06:54.293Z,-4.16
2019-01-24T02:12:13.976Z,-4.16
2019-01-24T02:17:34.225Z,-4.29
2019-01-24T02:22:54.367Z,-4.28
2019-01-24T02:28:13.921Z,-4.28
2019-01-24T02:33:32.578Z,-4.26
2019-01-24T02:38:51.249Z,-4.29
2019-01-24T02:44:10.495Z,-4.27
2019-01-24T02:49:29.324Z,-4.40
2019-01-24T02:54:48.038Z,-4.31
2019-01-24T03:00:09.586Z,-4.41
2019-01-24T03:05:28.245Z,-4.34
2019-01-24T03:10:47.412Z,-4.30
2019-01-24T03:16:06.055Z,-4.38
2019-01-24T03:21:24.754Z,-4.34
2019-01-24T03:26:43.307Z,-4.28
2019-01-24T03:32:01.990Z,-4.42
2019-01-24T03:37:20.663Z,-4.46
2019-01-24T03:42:39.238Z,-4.39
2019-01-24T03:47:57.805Z,-4.24
2019-01-24T03:53:16.555Z,-4.28
2019-01-24T03:58:35.160Z,-4.31
2019-01-24T04:03:54.153Z,-4.47
2019-01-24T04:09:12.868Z,-4.61
2019-01-24T04:14:31.749Z,-4.59
2019-01-24T04:19:51.514Z,-4.46
2019-01-24T04:25:10.226Z,-4.43
2019-01-24T04:30:29.479Z,-4.26
2019-01-24T04:35:48.136Z,-4.28
2019-01-24T04:41:07.509Z,-4.20
2019-01-24T04:46:26.190Z,-4.34
2019-01-24T04:51:44.860Z,-4.21
2019-01-24T04:57:03.542Z,-4.34
2019-01-24T05:02:22.095Z,-4.45
2019-01-24T05:07:40.755Z,-4.66
2019-01-24T05:12:59.458Z,-4.73
2019-01-24T05:18:18.121Z,-4.70
2019-01-24T05:23:36.834Z,-4.61
2019-01-24T05:28:55.547Z,-4.39
2019-01-24T05:34:18.663Z,-4.32
2019-01-24T05:39:37.577Z,-4.23
2019-01-24T05:44:56.144Z,-4.24
2019-01-24T05:50:14.799Z,-4.36
2019-01-24T05:55:33.474Z,-4.46
2019-01-24T06:00:52.160Z,-4.64
2019-01-24T06:06:10.817Z,-4.51
2019-01-24T06:11:29.464Z,-4.54
2019-01-24T06:16:48.228Z,-4.41
2019-01-24T06:22:07.002Z,-4.53
2019-01-24T06:27:25.671Z,-4.69
2019-01-24T06:32:44.315Z,-4.69
2019-01-24T06:38:02.950Z,-4.79
2019-01-24T06:43:21.521Z,-4.78
2019-01-24T06:48:40.229Z,-4.81
2019-01-24T06:54:02.460Z,-4.81
2019-01-24T06:59:21.034Z,-4.88
2019-01-24T07:04:39.719Z,-4.80
2019-01-24T07:09:58.365Z,-4.74
2019-01-24T07:15:19.245Z,-4.51
2019-01-24T07:20:38.114Z,-4.80
2019-01-24T07:25:56.772Z,-4.75
2019-01-24T07:31:16.189Z,-4.66
2019-01-24T07:36:34.854Z,-4.63
2019-01-24T07:41:53.523Z,-4.56
2019-01-24T07:47:12.261Z,-4.52
2019-01-24T07:52:30.943Z,-4.34
2019-01-24T07:57:49.568Z,-4.25
2019-01-24T08:03:08.339Z,-4.45
2019-01-24T08:08:28.012Z,-4.51
2019-01-24T08:13:46.731Z,-4.53
2019-01-24T08:19:05.540Z,-4.60
2019-01-24T08:24:24.268Z,-4.44
2019-01-24T08:29:44.457Z,-4.32
2019-01-24T08:35:04.474Z,-4.35
2019-01-24T08:40:24.326Z,-4.29
2019-01-24T08:45:43.137Z,-4.35
2019-01-24T08:51:01.945Z,-4.32
2019-01-24T08:56:20.507Z,-4.38
2019-01-24T09:01:42.355Z,-4.19
2019-01-24T09:07:01.188Z,-4.21
2019-01-24T09:12:20.586Z,-4.19
2019-01-24T09:17:40.911Z,-4.22
2019-01-24T09:22:59.558Z,-4.20
2019-01-24T09:28:18.274Z,-4.14
2019-01-24T09:33:36.939Z,-4.05
2019-01-24T09:38:55.863Z,-4.05
2019-01-24T09:44:15.085Z,-3.98
2019-01-24T09:49:33.785Z,-3.95
2019-01-24T09:54:52.379Z,-4.07
2019-01-24T10:00:16.517Z,-4.00
2019-01-24T10:05:37.992Z,-4.02
2019-01-24T10:10:59.597Z,-3.90
2019-01-24T10:16:18.362Z,-3.76
2019-01-24T10:21:37.423Z,-3.67
2019-01-24T10:26:56.585Z,-3.68
2019-01-24T10:32:16.310Z,-3.47
2019-01-24T10:37:35.259Z,-3.53
2019-01-24T10:42:55.189Z,-3.69
2019-01-24T10:48:13.857Z,-3.69
2019-01-24T10:53:34.313Z,-3.78
2019-01-24T10:58:52.966Z,-3.76
2019-01-24T11:04:11.563Z,-3.47
2019-01-24T11:09:30.410Z,-3.53
2019-01-24T11:14:49.065Z,-3.35
2019-01-24T11:20:10.617Z,-3.17
2019-01-24T11:25:29.309Z,-3.33
2019-01-24T11:30:47.991Z,-3.37
2019-01-24T11:36:06.663Z,-3.41
2019-01-24T11:41:25.368Z,-3.52
2019-01-24T11:46:46.932Z,-3.28
2019-01-24T11:52:05.854Z,-3.19
2019-01-24T11:57:24.556Z,-3.39
2019-01-24T12:02:43.346Z,-3.35
2019-01-24T12:08:02.123Z,-3.16
2019-01-24T12:13:21.765Z,-3.09
2019-01-24T12:18:42.620Z,-3.03
2019-01-24T12:24:01.238Z,-2.99
2019-01-24T12:29:19.881Z,-3.07
2019-01-24T12:34:38.511Z,-3.16
2019-01-24T12:39:57.259Z,-3.15
2019-01-24T12:45:24.315Z,-2.96
2019-01-24T12:50:42.989Z,-2.72
2019-01-24T12:56:01.701Z,-2.58
2019-01-24T13:01:20.473Z,-2.63
2019-01-24T13:06:39.264Z,-2.79
2019-01-24T13:11:57.951Z,-2.73
2019-01-24T13:17:20.350Z,-2.47
2019-01-24T13:22:39.003Z,-2.42
2019-01-24T13:27:57.691Z,-2.46
2019-01-24T13:33:18.023Z,-2.52
2019-01-24T13:38:36.639Z,-2.60
2019-01-24T13:43:57.992Z,-2.60
2019-01-24T13:49:18.056Z,-2.72
2019-01-24T13:54:36.861Z,-2.72
2019-01-24T13:59:55.582Z,-2.63
2019-01-24T14:05:20.338Z,-2.52
2019-01-24T14:10:42.337Z,-2.78
2019-01-24T14:16:01.192Z,-2.90
2019-01-24T14:21:19.979Z,-2.95
2019-01-24T14:26:38.898Z,-3.07
2019-01-24T14:31:57.634Z,-3.06
2019-01-24T14:37:16.675Z,-3.18
2019-01-24T14:42:35.556Z,-3.23
2019-01-24T14:47:54.146Z,-3.25
2019-01-24T14:53:12.948Z,-3.24
2019-01-24T14:58:31.622Z,-3.21
2019-01-24T15:03:52.963Z,-3.16
2019-01-24T15:09:11.716Z,-3.11
2019-01-24T15:14:30.426Z,-3.12
2019-01-24T15:19:49.106Z,-3.23
2019-01-24T15:25:13.506Z,-3.30
2019-01-24T15:30:32.232Z,-3.43
2019-01-24T15:35:51.961Z,-3.45
2019-01-24T15:41:10.596Z,-3.45
2019-01-24T15:46:29.474Z,-3.48
2019-01-24T15:51:48.371Z,-3.42
2019-01-24T15:57:07.365Z,-3.41
2019-01-24T16:02:26.061Z,-3.44
2019-01-24T16:07:48.232Z,-3.52
2019-01-24T16:13:08.619Z,-3.60
2019-01-24T16:18:29.100Z,-3.66
2019-01-24T16:23:58.896Z,-3.62
2019-01-24T16:29:35.575Z,-3.62
2019-01-24T16:34:58.131Z,-3.60
2019-01-24T16:40:26.579Z,-3.59
2019-01-24T16:45:45.383Z,-3.65
2019-01-24T16:51:05.703Z,-3.67
2019-01-24T16:56:25.859Z,-3.70
2019-01-24T17:01:44.721Z,-3.75
2019-01-24T17:07:03.992Z,-3.75
2019-01-24T17:12:22.576Z,-3.85
2019-01-24T17:17:55.486Z,-3.76
2019-01-24T17:23:29.250Z,-3.81
2019-01-24T17:28:52.301Z,-3.84
2019-01-24T17:34:12.881Z,-3.89
2019-01-24T17:39:31.331Z,-4.05
2019-01-24T17:44:49.994Z,-3.94
2019-01-24T17:50:14.332Z,-3.89
2019-01-24T17:55:42.645Z,-3.95
2019-01-24T18:01:02.990Z,-4.03
2019-01-24T18:06:25.701Z,-4.14
2019-01-24T18:12:05.636Z,-4.02
2019-01-24T18:17:34.559Z,-4.02
2019-01-24T18:22:56.518Z,-4.11
2019-01-24T18:28:36.301Z,-4.31
2019-01-24T18:33:55.963Z,-4.13
2019-01-24T18:39:14.698Z,-4.00
2019-01-24T18:44:34.925Z,-4.00
2019-01-24T18:49:53.667Z,-4.01
2019-01-24T18:55:13.410Z,-4.16
2019-01-24T19:00:44.990Z,-4.06
2019-01-24T19:06:03.744Z,-4.07
2019-01-24T19:11:23.799Z,-4.10
2019-01-24T19:16:42.442Z,-4.21
2019-01-24T19:22:01.086Z,-4.11
2019-01-24T19:27:19.839Z,-4.33
2019-01-24T19:32:39.292Z,-4.38
2019-01-24T19:37:58.192Z,-4.36
2019-01-24T19:43:16.825Z,-4.44
2019-01-24T19:48:35.455Z,-4.22
2019-01-24T19:53:54.092Z,-4.11
2019-01-24T19:59:13.137Z,-4.07
2019-01-24T20:04:34.740Z,-4.14
2019-01-24T20:09:53.308Z,-4.21
2019-01-24T20:15:19.007Z,-4.18
2019-01-24T20:20:40.643Z,-4.04
2019-01-24T20:26:03.007Z,-4.23
2019-01-24T20:31:21.654Z,-3.99
2019-01-24T20:36:43.120Z,-4.05
2019-01-24T20:42:02.548Z,-4.08
2019-01-24T20:47:22.805Z,-4.33
2019-01-24T20:52:46.442Z,-4.23
2019-01-24T20:58:06.686Z,-4.24
2019-01-24T21:03:25.343Z,-4.10
2019-01-24T21:08:53.627Z,-4.01
2019-01-24T21:14:08.214Z,-3.98
2019-01-24T21:19:26.883Z,-4.14
2019-01-24T21:24:45.535Z,-4.11
2019-01-24T21:30:22.207Z,-4.01
2019-01-24T21:35:40.899Z,-4.01
2019-01-24T21:41:01.387Z,-3.95
2019-01-24T21:46:20.083Z,-4.16
2019-01-24T21:51:38.796Z,-3.97
2019-01-24T21:56:57.520Z,-3.94
2019-01-24T22:02:16.449Z,-3.94
2019-01-24T22:07:35.094Z,-3.89
2019-01-24T22:12:53.834Z,-3.99
2019-01-24T22:18:12.486Z,-3.87
2019-01-24T22:23:31.028Z,-3.88
2019-01-24T22:28:49.666Z,-3.95
2019-01-24T22:34:08.256Z,-4.19
2019-01-24T22:39:26.920Z,-4.16
2019-01-24T22:44:45.475Z,-4.14
2019-01-24T22:50:06.428Z,-4.25
2019-01-24T22:55:26.373Z,-4.19
2019-01-24T23:00:54.236Z,-4.24
2019-01-24T23:06:14.675Z,-4.28
2019-01-24T23:11:33.593Z,-4.17
2019-01-24T23:16:52.786Z,-4.00
2019-01-24T23:22:11.536Z,-3.95
2019-01-24T23:27:30.614Z,-4.15
2019-01-24T23:32:52.882Z,-3.94
2019-01-24T23:38:11.782Z,-3.87
2019-01-24T23:43:30.489Z,-3.89
2019-01-24T23:48:49.174Z,-3.81
2019-01-24T23:54:07.793Z,-3.80
2019-01-24T23:59:28.089Z,-3.81
